Terminal Aerodrome Forecast
Issued by NWS

Home | Current Version | Previous Version | Text Only | Print | Product List | Glossary On
Versions: 1 2 3 4 5 6 7 8 9 10 11 12 13 14 15 16 17 18
000
FTUS44 KLIX 251700
TAFMSY
TAF
KMSY 251729Z 2518/2618 VRB04KT P6SM FEW025 FEW250
     FM260100 12006KT P6SM FEW050
     FM260800 13005KT P6SM BKN050
      TEMPO 2611/2613 BKN025 BKN050
     FM261300 12005KT P6SM BKN050=

USA.gov is the U.S. government's official web portal to all federal, state and local government web resources and services.